Accueil
METAR-TAF:

METAR-TAF

Aéroports :

Base aérienne de Kleine-Brogel

Peer, Belgique

latitude: 51-10N, longitude: 005-28E, altitude: 55 m

Observation

Le bulletin a été fait il y a 48 minutes, à 04:25 UTC
Vent 3 kt de sud
Température 8°C
Humidité 93%
Pression 1018 hPa
Visibilité 10 km ou plus

METAR: EBBL 280425Z AUTO 18003KT 9999 NCD 08/07 Q1018 BLU

Heure: 07:13 (05:13 UTC)

Prévision

Le bulletin a été fait il y a 13 heures et 32 minutes, à 15:41 UTC
Prévision valable du 27 à 19 UTC au 28 à 07 UTC
Vent 8 kt de sud
Temporairement
du 27 à 21 UTC au 28 à 07 UTC
Visibilité: 5000 m
Quelques nuages à une hauteur de 20000 ft
brume
Probabilité 30% :
Temporairement
du 21 à 22 UTC au 28 à 07 UTC
Visibilité: 3000 m
brume

TAF: EBBL 271541Z 2719/2807 18008KT TEMPO 2721/2807 5000 BR FEW200 PROB30 TEMPO 2122/2807 3000 BR

Observations et prévisions météorologiques de plus de 4000 aéroports (messages METAR et TAF).

Les stations disponibles sont représentées par des disques jaunes et rouges sur la carte.

Passer la souris dessus pour voir le nom de la station.

Cliquer dessus pour voir les observations et prévisions météorologiques.

Pour changer de carte: cliquez sur les boutons verts avec une croix noire pour zoomer, sur le bouton vert avec un tiret pour effectuer un zoom arrière, ou sur les flèches vertes pour les cartes adjacentes.


METAR-TAF: